sensor_id;sensor_type;location;lat;lon;timestamp;temperature;humidity
41694;DHT22;27377;50.666;9.150;2022-08-21T00:01:10;17.60;99.90
41694;DHT22;27377;50.666;9.150;2022-08-21T00:03:36;17.50;99.90
41694;DHT22;27377;50.666;9.150;2022-08-21T00:06:02;17.50;99.90
41694;DHT22;27377;50.666;9.150;2022-08-21T00:08:27;17.30;99.90
41694;DHT22;27377;50.666;9.150;2022-08-21T00:10:53;17.20;99.90
41694;DHT22;27377;50.666;9.150;2022-08-21T00:13:19;17.20;99.90
41694;DHT22;27377;50.666;9.150;2022-08-21T00:15:46;17.20;99.90
41694;DHT22;27377;50.666;9.150;2022-08-21T00:18:12;17.20;99.90
41694;DHT22;27377;50.666;9.150;2022-08-21T00:20:39;17.10;99.90
41694;DHT22;27377;50.666;9.150;2022-08-21T00:23:05;17.10;99.90
41694;DHT22;27377;50.666;9.150;2022-08-21T00:25:30;17.10;99.90
41694;DHT22;27377;50.666;9.150;2022-08-21T00:27:56;17.10;99.90
41694;DHT22;27377;50.666;9.150;2022-08-21T00:30:23;17.00;99.90
41694;DHT22;27377;50.666;9.150;2022-08-21T00:32:52;17.00;99.90
41694;DHT22;27377;50.666;9.150;2022-08-21T00:35:23;17.00;99.90
41694;DHT22;27377;50.666;9.150;2022-08-21T00:37:49;16.90;99.90
41694;DHT22;27377;50.666;9.150;2022-08-21T00:40:17;16.90;99.90
41694;DHT22;27377;50.666;9.150;2022-08-21T00:42:44;16.90;99.90
41694;DHT22;27377;50.666;9.150;2022-08-21T00:45:10;16.80;99.90
41694;DHT22;27377;50.666;9.150;2022-08-21T00:47:36;16.80;99.90
41694;DHT22;27377;50.666;9.150;2022-08-21T00:50:05;16.70;99.90
41694;DHT22;27377;50.666;9.150;2022-08-21T00:52:32;16.60;99.90
41694;DHT22;27377;50.666;9.150;2022-08-21T00:55:00;16.50;99.90
41694;DHT22;27377;50.666;9.150;2022-08-21T00:57:30;16.50;99.90
41694;DHT22;27377;50.666;9.150;2022-08-21T00:59:59;16.50;99.90
41694;DHT22;27377;50.666;9.150;2022-08-21T01:02:25;16.40;99.90
41694;DHT22;27377;50.666;9.150;2022-08-21T01:04:51;16.40;99.90
41694;DHT22;27377;50.666;9.150;2022-08-21T01:07:18;16.20;99.90
41694;DHT22;27377;50.666;9.150;2022-08-21T01:09:46;16.10;99.90
41694;DHT22;27377;50.666;9.150;2022-08-21T01:12:13;16.10;99.90
41694;DHT22;27377;50.666;9.150;2022-08-21T01:14:40;16.00;99.90
41694;DHT22;27377;50.666;9.150;2022-08-21T01:17:08;16.00;99.90
41694;DHT22;27377;50.666;9.150;2022-08-21T01:19:35;16.00;99.90
41694;DHT22;27377;50.666;9.150;2022-08-21T01:22:01;16.00;99.90
41694;DHT22;27377;50.666;9.150;2022-08-21T01:24:27;16.00;99.90
41694;DHT22;27377;50.666;9.150;2022-08-21T01:26:53;16.00;99.90
41694;DHT22;27377;50.666;9.150;2022-08-21T01:32:05;15.90;99.90
41694;DHT22;27377;50.666;9.150;2022-08-21T01:34:32;15.80;99.90
41694;DHT22;27377;50.666;9.150;2022-08-21T01:36:58;15.70;99.90
41694;DHT22;27377;50.666;9.150;2022-08-21T01:39:24;15.70;99.90
41694;DHT22;27377;50.666;9.150;2022-08-21T01:41:50;15.60;99.90
41694;DHT22;27377;50.666;9.150;2022-08-21T01:44:15;15.50;99.90
41694;DHT22;27377;50.666;9.150;2022-08-21T01:46:41;15.50;99.90
41694;DHT22;27377;50.666;9.150;2022-08-21T01:49:06;15.40;99.90
41694;DHT22;27377;50.666;9.150;2022-08-21T01:51:32;15.40;99.90
41694;DHT22;27377;50.666;9.150;2022-08-21T01:53:58;15.50;99.90
41694;DHT22;27377;50.666;9.150;2022-08-21T01:56:24;15.40;99.90
41694;DHT22;27377;50.666;9.150;2022-08-21T01:58:51;15.40;99.90
41694;DHT22;27377;50.666;9.150;2022-08-21T02:01:16;15.30;99.90
41694;DHT22;27377;50.666;9.150;2022-08-21T02:03:42;15.20;99.90
41694;DHT22;27377;50.666;9.150;2022-08-21T02:06:13;15.10;99.90
41694;DHT22;27377;50.666;9.150;2022-08-21T02:08:39;15.20;99.90
41694;DHT22;27377;50.666;9.150;2022-08-21T02:11:04;15.10;99.90
41694;DHT22;27377;50.666;9.150;2022-08-21T02:13:30;15.00;99.90
41694;DHT22;27377;50.666;9.150;2022-08-21T02:15:55;14.90;99.90
41694;DHT22;27377;50.666;9.150;2022-08-21T02:18:21;14.90;99.90
41694;DHT22;27377;50.666;9.150;2022-08-21T02:20:48;14.90;99.90
41694;DHT22;27377;50.666;9.150;2022-08-21T02:23:14;14.80;99.90
41694;DHT22;27377;50.666;9.150;2022-08-21T02:25:40;14.70;99.90
41694;DHT22;27377;50.666;9.150;2022-08-21T02:28:09;14.60;99.90
41694;DHT22;27377;50.666;9.150;2022-08-21T02:30:39;14.60;99.90
41694;DHT22;27377;50.666;9.150;2022-08-21T02:33:06;14.60;99.90
41694;DHT22;27377;50.666;9.150;2022-08-21T02:35:32;14.60;99.90
41694;DHT22;27377;50.666;9.150;2022-08-21T02:38:00;14.60;99.90
41694;DHT22;27377;50.666;9.150;2022-08-21T02:40:30;14.60;99.90
41694;DHT22;27377;50.666;9.150;2022-08-21T02:42:57;14.50;99.90
41694;DHT22;27377;50.666;9.150;2022-08-21T02:45:22;14.50;99.90
41694;DHT22;27377;50.666;9.150;2022-08-21T02:47:57;14.40;99.90
41694;DHT22;27377;50.666;9.150;2022-08-21T02:50:29;14.40;99.90
41694;DHT22;27377;50.666;9.150;2022-08-21T02:52:56;14.40;99.90
41694;DHT22;27377;50.666;9.150;2022-08-21T02:55:23;14.40;99.90
41694;DHT22;27377;50.666;9.150;2022-08-21T02:57:52;14.40;99.90
41694;DHT22;27377;50.666;9.150;2022-08-21T03:00:19;14.40;99.90
41694;DHT22;27377;50.666;9.150;2022-08-21T03:02:46;14.30;99.90
41694;DHT22;27377;50.666;9.150;2022-08-21T03:05:13;14.30;99.90
41694;DHT22;27377;50.666;9.150;2022-08-21T03:07:41;14.20;99.90
41694;DHT22;27377;50.666;9.150;2022-08-21T03:10:07;14.20;99.90
41694;DHT22;27377;50.666;9.150;2022-08-21T03:12:34;14.10;99.90
41694;DHT22;27377;50.666;9.150;2022-08-21T03:15:05;14.10;99.90
41694;DHT22;27377;50.666;9.150;2022-08-21T03:17:32;14.10;99.90
41694;DHT22;27377;50.666;9.150;2022-08-21T03:19:57;14.00;99.90
41694;DHT22;27377;50.666;9.150;2022-08-21T03:22:23;14.00;99.90
41694;DHT22;27377;50.666;9.150;2022-08-21T03:24:49;13.90;99.90
41694;DHT22;27377;50.666;9.150;2022-08-21T03:27:15;13.90;99.90
41694;DHT22;27377;50.666;9.150;2022-08-21T03:29:40;13.90;99.90
41694;DHT22;27377;50.666;9.150;2022-08-21T03:32:06;13.80;99.90
41694;DHT22;27377;50.666;9.150;2022-08-21T03:34:38;13.90;99.90
41694;DHT22;27377;50.666;9.150;2022-08-21T03:37:06;13.90;99.90
41694;DHT22;27377;50.666;9.150;2022-08-21T03:39:31;13.90;99.90
41694;DHT22;27377;50.666;9.150;2022-08-21T03:41:57;13.90;99.90
41694;DHT22;27377;50.666;9.150;2022-08-21T03:44:23;13.80;99.90
41694;DHT22;27377;50.666;9.150;2022-08-21T03:46:49;13.90;99.90
41694;DHT22;27377;50.666;9.150;2022-08-21T03:49:15;13.70;99.90
41694;DHT22;27377;50.666;9.150;2022-08-21T03:51:40;13.70;99.90
41694;DHT22;27377;50.666;9.150;2022-08-21T03:54:06;13.70;99.90
41694;DHT22;27377;50.666;9.150;2022-08-21T03:56:32;13.60;99.90
41694;DHT22;27377;50.666;9.150;2022-08-21T03:58:57;13.60;99.90
41694;DHT22;27377;50.666;9.150;2022-08-21T04:01:24;13.50;99.90
41694;DHT22;27377;50.666;9.150;2022-08-21T04:03:51;13.50;99.90
41694;DHT22;27377;50.666;9.150;2022-08-21T04:06:17;13.50;99.90
41694;DHT22;27377;50.666;9.150;2022-08-21T04:08:43;13.50;99.90
41694;DHT22;27377;50.666;9.150;2022-08-21T04:11:09;13.50;99.90
41694;DHT22;27377;50.666;9.150;2022-08-21T04:13:38;13.50;99.90
41694;DHT22;27377;50.666;9.150;2022-08-21T04:16:04;13.40;99.90
41694;DHT22;27377;50.666;9.150;2022-08-21T04:18:30;13.40;99.90
41694;DHT22;27377;50.666;9.150;2022-08-21T04:20:57;13.30;99.90
41694;DHT22;27377;50.666;9.150;2022-08-21T04:23:24;13.20;99.90
41694;DHT22;27377;50.666;9.150;2022-08-21T04:25:51;13.20;99.90
41694;DHT22;27377;50.666;9.150;2022-08-21T04:28:17;13.30;99.90
41694;DHT22;27377;50.666;9.150;2022-08-21T04:30:42;13.30;99.90
41694;DHT22;27377;50.666;9.150;2022-08-21T04:33:08;13.30;99.90
41694;DHT22;27377;50.666;9.150;2022-08-21T04:35:34;13.20;99.90
41694;DHT22;27377;50.666;9.150;2022-08-21T04:38:00;13.20;99.90
41694;DHT22;27377;50.666;9.150;2022-08-21T04:40:28;13.20;99.90
41694;DHT22;27377;50.666;9.150;2022-08-21T04:42:57;13.10;99.90
41694;DHT22;27377;50.666;9.150;2022-08-21T04:45:51;13.10;99.90
41694;DHT22;27377;50.666;9.150;2022-08-21T04:48:18;13.10;99.90
41694;DHT22;27377;50.666;9.150;2022-08-21T04:51:13;13.00;99.90
41694;DHT22;27377;50.666;9.150;2022-08-21T04:53:49;13.00;99.90
41694;DHT22;27377;50.666;9.150;2022-08-21T04:56:22;12.90;99.90
41694;DHT22;27377;50.666;9.150;2022-08-21T04:58:50;12.90;99.90
41694;DHT22;27377;50.666;9.150;2022-08-21T05:01:20;12.90;99.90
41694;DHT22;27377;50.666;9.150;2022-08-21T05:03:48;12.80;99.90
41694;DHT22;27377;50.666;9.150;2022-08-21T05:06:15;12.90;99.90
41694;DHT22;27377;50.666;9.150;2022-08-21T05:08:44;12.90;99.90
41694;DHT22;27377;50.666;9.150;2022-08-21T05:11:11;12.90;99.90
41694;DHT22;27377;50.666;9.150;2022-08-21T05:13:39;12.90;99.90
41694;DHT22;27377;50.666;9.150;2022-08-21T05:16:08;13.00;99.90
41694;DHT22;27377;50.666;9.150;2022-08-21T05:18:34;13.00;99.90
41694;DHT22;27377;50.666;9.150;2022-08-21T05:20:59;13.00;99.90
41694;DHT22;27377;50.666;9.150;2022-08-21T05:23:25;13.00;99.90
41694;DHT22;27377;50.666;9.150;2022-08-21T05:25:52;13.00;99.90
41694;DHT22;27377;50.666;9.150;2022-08-21T05:28:19;13.00;99.90
41694;DHT22;27377;50.666;9.150;2022-08-21T05:30:44;13.00;99.90
41694;DHT22;27377;50.666;9.150;2022-08-21T05:33:10;13.00;99.90
41694;DHT22;27377;50.666;9.150;2022-08-21T05:35:37;13.00;99.90
41694;DHT22;27377;50.666;9.150;2022-08-21T05:38:04;13.00;99.90
41694;DHT22;27377;50.666;9.150;2022-08-21T05:40:30;13.00;99.90
41694;DHT22;27377;50.666;9.150;2022-08-21T05:42:56;13.10;99.90
41694;DHT22;27377;50.666;9.150;2022-08-21T05:45:25;13.20;99.90
41694;DHT22;27377;50.666;9.150;2022-08-21T05:47:51;13.20;99.90
41694;DHT22;27377;50.666;9.150;2022-08-21T05:50:17;13.30;99.90
41694;DHT22;27377;50.666;9.150;2022-08-21T05:52:42;13.40;99.90
41694;DHT22;27377;50.666;9.150;2022-08-21T05:55:08;13.50;99.90
41694;DHT22;27377;50.666;9.150;2022-08-21T05:57:34;13.60;99.90
41694;DHT22;27377;50.666;9.150;2022-08-21T05:59:59;13.70;99.90
41694;DHT22;27377;50.666;9.150;2022-08-21T06:02:25;13.70;99.90
41694;DHT22;27377;50.666;9.150;2022-08-21T06:04:50;13.80;99.90
41694;DHT22;27377;50.666;9.150;2022-08-21T06:07:16;13.80;99.90
41694;DHT22;27377;50.666;9.150;2022-08-21T06:09:41;13.80;99.90
41694;DHT22;27377;50.666;9.150;2022-08-21T06:12:11;13.90;99.90
41694;DHT22;27377;50.666;9.150;2022-08-21T06:14:39;13.90;99.90
41694;DHT22;27377;50.666;9.150;2022-08-21T06:17:07;13.90;99.90
41694;DHT22;27377;50.666;9.150;2022-08-21T06:19:34;14.00;99.90
41694;DHT22;27377;50.666;9.150;2022-08-21T06:22:00;14.20;99.90
41694;DHT22;27377;50.666;9.150;2022-08-21T06:24:26;14.20;99.90
41694;DHT22;27377;50.666;9.150;2022-08-21T06:26:52;14.30;99.90
41694;DHT22;27377;50.666;9.150;2022-08-21T06:29:18;14.40;99.90
41694;DHT22;27377;50.666;9.150;2022-08-21T06:31:45;14.50;99.90
41694;DHT22;27377;50.666;9.150;2022-08-21T06:34:11;14.60;99.90
41694;DHT22;27377;50.666;9.150;2022-08-21T06:36:37;14.70;99.90
41694;DHT22;27377;50.666;9.150;2022-08-21T06:39:03;14.80;99.90
41694;DHT22;27377;50.666;9.150;2022-08-21T06:41:28;14.90;99.90
41694;DHT22;27377;50.666;9.150;2022-08-21T06:43:55;15.00;99.90
41694;DHT22;27377;50.666;9.150;2022-08-21T06:46:22;15.10;99.90
41694;DHT22;27377;50.666;9.150;2022-08-21T06:48:48;15.20;99.90
41694;DHT22;27377;50.666;9.150;2022-08-21T06:51:13;15.20;99.90
41694;DHT22;27377;50.666;9.150;2022-08-21T06:53:39;15.30;99.90
41694;DHT22;27377;50.666;9.150;2022-08-21T06:56:04;15.40;99.90
41694;DHT22;27377;50.666;9.150;2022-08-21T06:58:30;15.50;99.90
41694;DHT22;27377;50.666;9.150;2022-08-21T07:00:56;15.60;99.90
41694;DHT22;27377;50.666;9.150;2022-08-21T07:03:25;15.70;99.90
41694;DHT22;27377;50.666;9.150;2022-08-21T07:05:53;15.80;99.90
41694;DHT22;27377;50.666;9.150;2022-08-21T07:08:19;15.90;99.90
41694;DHT22;27377;50.666;9.150;2022-08-21T07:10:46;16.00;99.90
41694;DHT22;27377;50.666;9.150;2022-08-21T07:13:12;16.10;99.90
41694;DHT22;27377;50.666;9.150;2022-08-21T07:15:38;16.20;99.90
41694;DHT22;27377;50.666;9.150;2022-08-21T07:18:04;16.30;99.90
41694;DHT22;27377;50.666;9.150;2022-08-21T07:20:31;16.40;99.90
41694;DHT22;27377;50.666;9.150;2022-08-21T07:23:00;16.40;99.90
41694;DHT22;27377;50.666;9.150;2022-08-21T07:25:26;16.50;99.90
41694;DHT22;27377;50.666;9.150;2022-08-21T07:27:52;16.60;99.90
41694;DHT22;27377;50.666;9.150;2022-08-21T07:30:18;16.60;99.90
41694;DHT22;27377;50.666;9.150;2022-08-21T07:32:44;16.70;99.90
41694;DHT22;27377;50.666;9.150;2022-08-21T07:35:10;16.80;99.90
41694;DHT22;27377;50.666;9.150;2022-08-21T07:37:36;16.80;99.90
41694;DHT22;27377;50.666;9.150;2022-08-21T07:40:02;16.90;99.90
41694;DHT22;27377;50.666;9.150;2022-08-21T07:42:27;17.00;99.90
41694;DHT22;27377;50.666;9.150;2022-08-21T07:44:54;17.10;99.90
41694;DHT22;27377;50.666;9.150;2022-08-21T07:47:20;17.10;99.90
41694;DHT22;27377;50.666;9.150;2022-08-21T07:49:46;17.20;99.90
41694;DHT22;27377;50.666;9.150;2022-08-21T07:52:12;17.30;99.90
41694;DHT22;27377;50.666;9.150;2022-08-21T07:54:37;17.30;99.90
41694;DHT22;27377;50.666;9.150;2022-08-21T07:57:03;17.40;99.90
41694;DHT22;27377;50.666;9.150;2022-08-21T07:59:29;17.50;99.90
41694;DHT22;27377;50.666;9.150;2022-08-21T08:01:55;17.60;99.90
41694;DHT22;27377;50.666;9.150;2022-08-21T08:04:21;17.70;99.90
41694;DHT22;27377;50.666;9.150;2022-08-21T08:06:47;17.70;99.90
41694;DHT22;27377;50.666;9.150;2022-08-21T08:09:13;17.70;99.90
41694;DHT22;27377;50.666;9.150;2022-08-21T08:11:41;17.80;99.90
41694;DHT22;27377;50.666;9.150;2022-08-21T08:14:09;17.90;99.90
41694;DHT22;27377;50.666;9.150;2022-08-21T08:16:35;17.90;99.90
41694;DHT22;27377;50.666;9.150;2022-08-21T08:19:00;18.00;99.90
41694;DHT22;27377;50.666;9.150;2022-08-21T08:21:26;18.10;99.90
41694;DHT22;27377;50.666;9.150;2022-08-21T08:23:53;18.10;99.90
41694;DHT22;27377;50.666;9.150;2022-08-21T08:26:18;18.10;99.90
41694;DHT22;27377;50.666;9.150;2022-08-21T08:28:44;18.10;99.90
41694;DHT22;27377;50.666;9.150;2022-08-21T08:31:13;18.20;99.90
41694;DHT22;27377;50.666;9.150;2022-08-21T08:33:39;18.20;99.90
41694;DHT22;27377;50.666;9.150;2022-08-21T08:36:05;18.20;99.90
41694;DHT22;27377;50.666;9.150;2022-08-21T08:38:36;18.30;99.90
41694;DHT22;27377;50.666;9.150;2022-08-21T08:41:15;18.30;99.90
41694;DHT22;27377;50.666;9.150;2022-08-21T08:43:50;18.40;99.90
41694;DHT22;27377;50.666;9.150;2022-08-21T08:46:25;18.40;99.90
41694;DHT22;27377;50.666;9.150;2022-08-21T08:49:00;18.50;99.90
41694;DHT22;27377;50.666;9.150;2022-08-21T08:51:43;18.50;99.90
41694;DHT22;27377;50.666;9.150;2022-08-21T08:54:15;18.50;99.90
41694;DHT22;27377;50.666;9.150;2022-08-21T08:56:40;18.50;99.90
41694;DHT22;27377;50.666;9.150;2022-08-21T08:59:17;18.60;99.90
41694;DHT22;27377;50.666;9.150;2022-08-21T09:01:44;18.60;99.90
41694;DHT22;27377;50.666;9.150;2022-08-21T09:04:10;18.70;99.90
41694;DHT22;27377;50.666;9.150;2022-08-21T09:06:55;18.80;99.90
41694;DHT22;27377;50.666;9.150;2022-08-21T09:12:56;18.90;99.90
41694;DHT22;27377;50.666;9.150;2022-08-21T09:15:33;19.00;99.90
41694;DHT22;27377;50.666;9.150;2022-08-21T09:21:08;19.10;99.50
41694;DHT22;27377;50.666;9.150;2022-08-21T09:26:29;19.20;98.90
41694;DHT22;27377;50.666;9.150;2022-08-21T09:28:58;19.20;98.70
41694;DHT22;27377;50.666;9.150;2022-08-21T09:31:33;19.30;97.70
41694;DHT22;27377;50.666;9.150;2022-08-21T09:34:05;19.30;97.60
41694;DHT22;27377;50.666;9.150;2022-08-21T09:36:38;19.30;97.20
41694;DHT22;27377;50.666;9.150;2022-08-21T09:39:05;19.30;97.30
41694;DHT22;27377;50.666;9.150;2022-08-21T09:41:33;19.30;97.50
41694;DHT22;27377;50.666;9.150;2022-08-21T09:44:01;19.20;97.40
41694;DHT22;27377;50.666;9.150;2022-08-21T09:46:27;19.20;97.50
41694;DHT22;27377;50.666;9.150;2022-08-21T09:49:04;19.20;97.40
41694;DHT22;27377;50.666;9.150;2022-08-21T09:51:32;19.30;97.50
41694;DHT22;27377;50.666;9.150;2022-08-21T09:56:37;19.40;97.20
41694;DHT22;27377;50.666;9.150;2022-08-21T09:59:32;19.40;97.00
41694;DHT22;27377;50.666;9.150;2022-08-21T10:02:00;19.50;96.90
41694;DHT22;27377;50.666;9.150;2022-08-21T10:04:32;19.60;96.60
41694;DHT22;27377;50.666;9.150;2022-08-21T10:07:13;19.70;96.60
41694;DHT22;27377;50.666;9.150;2022-08-21T10:09:41;19.70;96.70
41694;DHT22;27377;50.666;9.150;2022-08-21T10:12:18;19.70;96.30
41694;DHT22;27377;50.666;9.150;2022-08-21T10:14:56;19.70;95.70
41694;DHT22;27377;50.666;9.150;2022-08-21T10:26:03;19.60;96.20
41694;DHT22;27377;50.666;9.150;2022-08-21T10:28:48;19.70;96.20
41694;DHT22;27377;50.666;9.150;2022-08-21T10:31:44;19.70;96.00
41694;DHT22;27377;50.666;9.150;2022-08-21T10:34:30;19.80;94.80
41694;DHT22;27377;50.666;9.150;2022-08-21T10:48:41;20.10;93.80
41694;DHT22;27377;50.666;9.150;2022-08-21T10:54:05;20.20;93.50
41694;DHT22;27377;50.666;9.150;2022-08-21T10:56:36;20.20;93.20
41694;DHT22;27377;50.666;9.150;2022-08-21T10:59:26;20.30;92.10
41694;DHT22;27377;50.666;9.150;2022-08-21T11:02:32;20.50;92.00
41694;DHT22;27377;50.666;9.150;2022-08-21T11:05:16;20.40;92.30
41694;DHT22;27377;50.666;9.150;2022-08-21T11:08:33;20.50;92.40
41694;DHT22;27377;50.666;9.150;2022-08-21T11:10:38;20.40;92.20
41694;DHT22;27377;50.666;9.150;2022-08-21T11:16:04;20.70;90.10
41694;DHT22;27377;50.666;9.150;2022-08-21T11:18:45;20.70;90.50
41694;DHT22;27377;50.666;9.150;2022-08-21T11:27:12;20.70;90.50
41694;DHT22;27377;50.666;9.150;2022-08-21T11:29:41;20.70;90.50
41694;DHT22;27377;50.666;9.150;2022-08-21T11:32:19;20.80;89.80
41694;DHT22;27377;50.666;9.150;2022-08-21T11:34:58;20.80;90.10
41694;DHT22;27377;50.666;9.150;2022-08-21T11:42:56;20.90;89.90
41694;DHT22;27377;50.666;9.150;2022-08-21T11:45:42;20.90;89.80
41694;DHT22;27377;50.666;9.150;2022-08-21T11:51:17;21.00;89.30
41694;DHT22;27377;50.666;9.150;2022-08-21T11:56:19;21.10;88.80
41694;DHT22;27377;50.666;9.150;2022-08-21T11:58:53;21.10;88.10
41694;DHT22;27377;50.666;9.150;2022-08-21T12:01:26;21.10;88.10
41694;DHT22;27377;50.666;9.150;2022-08-21T12:04:00;21.20;87.20
41694;DHT22;27377;50.666;9.150;2022-08-21T12:06:33;21.30;86.90
41694;DHT22;27377;50.666;9.150;2022-08-21T12:09:04;21.30;86.60
41694;DHT22;27377;50.666;9.150;2022-08-21T12:11:30;21.30;85.80
41694;DHT22;27377;50.666;9.150;2022-08-21T12:16:41;21.30;86.00
41694;DHT22;27377;50.666;9.150;2022-08-21T12:19:28;21.30;85.50
41694;DHT22;27377;50.666;9.150;2022-08-21T12:27:20;21.30;85.60
41694;DHT22;27377;50.666;9.150;2022-08-21T12:29:54;21.40;82.50
41694;DHT22;27377;50.666;9.150;2022-08-21T12:32:28;21.50;84.30
41694;DHT22;27377;50.666;9.150;2022-08-21T12:35:01;21.50;84.30
41694;DHT22;27377;50.666;9.150;2022-08-21T12:37:46;21.50;83.90
41694;DHT22;27377;50.666;9.150;2022-08-21T12:40:25;21.60;83.40
41694;DHT22;27377;50.666;9.150;2022-08-21T12:42:54;21.60;83.80
41694;DHT22;27377;50.666;9.150;2022-08-21T12:45:31;21.60;83.90
41694;DHT22;27377;50.666;9.150;2022-08-21T12:48:06;21.60;83.10
41694;DHT22;27377;50.666;9.150;2022-08-21T12:50:46;21.50;84.10
41694;DHT22;27377;50.666;9.150;2022-08-21T12:53:33;21.50;84.70
41694;DHT22;27377;50.666;9.150;2022-08-21T12:56:09;21.50;84.40
41694;DHT22;27377;50.666;9.150;2022-08-21T12:58:35;21.50;83.20
41694;DHT22;27377;50.666;9.150;2022-08-21T13:03:52;21.60;82.90
41694;DHT22;27377;50.666;9.150;2022-08-21T13:06:20;21.60;82.90
41694;DHT22;27377;50.666;9.150;2022-08-21T13:08:47;21.70;83.30
41694;DHT22;27377;50.666;9.150;2022-08-21T13:11:18;21.70;82.90
41694;DHT22;27377;50.666;9.150;2022-08-21T13:13:49;21.80;82.60
41694;DHT22;27377;50.666;9.150;2022-08-21T13:16:26;21.80;82.20
41694;DHT22;27377;50.666;9.150;2022-08-21T13:21:20;21.90;81.80
41694;DHT22;27377;50.666;9.150;2022-08-21T13:23:46;21.90;81.40
41694;DHT22;27377;50.666;9.150;2022-08-21T13:26:18;22.00;81.70
41694;DHT22;27377;50.666;9.150;2022-08-21T13:28:45;22.00;81.90
41694;DHT22;27377;50.666;9.150;2022-08-21T13:31:20;22.10;81.80
41694;DHT22;27377;50.666;9.150;2022-08-21T13:33:47;22.10;80.90
41694;DHT22;27377;50.666;9.150;2022-08-21T13:36:18;22.20;80.70
41694;DHT22;27377;50.666;9.150;2022-08-21T13:38:45;22.20;80.40
41694;DHT22;27377;50.666;9.150;2022-08-21T13:41:21;22.20;79.50
41694;DHT22;27377;50.666;9.150;2022-08-21T13:43:58;22.20;79.30
41694;DHT22;27377;50.666;9.150;2022-08-21T13:46:28;22.20;79.40
41694;DHT22;27377;50.666;9.150;2022-08-21T13:48:54;22.20;79.60
41694;DHT22;27377;50.666;9.150;2022-08-21T13:51:20;22.30;79.10
41694;DHT22;27377;50.666;9.150;2022-08-21T13:53:49;22.30;78.40
41694;DHT22;27377;50.666;9.150;2022-08-21T13:56:29;22.30;76.80
41694;DHT22;27377;50.666;9.150;2022-08-21T13:58:57;22.30;77.30
41694;DHT22;27377;50.666;9.150;2022-08-21T14:04:20;22.30;78.50
41694;DHT22;27377;50.666;9.150;2022-08-21T14:06:47;22.40;78.80
41694;DHT22;27377;50.666;9.150;2022-08-21T14:09:24;22.40;78.50
41694;DHT22;27377;50.666;9.150;2022-08-21T14:11:52;22.40;78.30
41694;DHT22;27377;50.666;9.150;2022-08-21T14:14:31;22.40;78.30
41694;DHT22;27377;50.666;9.150;2022-08-21T14:17:00;22.60;75.10
41694;DHT22;27377;50.666;9.150;2022-08-21T14:22:27;22.70;77.20
41694;DHT22;27377;50.666;9.150;2022-08-21T14:27:44;22.70;73.90
41694;DHT22;27377;50.666;9.150;2022-08-21T14:30:20;22.90;76.40
41694;DHT22;27377;50.666;9.150;2022-08-21T14:32:46;22.90;76.40
41694;DHT22;27377;50.666;9.150;2022-08-21T14:35:12;22.90;76.10
41694;DHT22;27377;50.666;9.150;2022-08-21T14:37:42;22.80;75.40
41694;DHT22;27377;50.666;9.150;2022-08-21T14:40:08;22.90;75.20
41694;DHT22;27377;50.666;9.150;2022-08-21T14:42:34;22.90;75.60
41694;DHT22;27377;50.666;9.150;2022-08-21T14:45:13;23.10;71.60
41694;DHT22;27377;50.666;9.150;2022-08-21T14:47:39;23.10;72.20
41694;DHT22;27377;50.666;9.150;2022-08-21T14:50:04;23.10;73.40
41694;DHT22;27377;50.666;9.150;2022-08-21T14:52:30;23.00;73.60
41694;DHT22;27377;50.666;9.150;2022-08-21T14:54:56;22.90;73.20
41694;DHT22;27377;50.666;9.150;2022-08-21T14:57:22;22.90;74.10
41694;DHT22;27377;50.666;9.150;2022-08-21T14:59:48;22.90;74.60
41694;DHT22;27377;50.666;9.150;2022-08-21T15:02:14;22.90;73.10
41694;DHT22;27377;50.666;9.150;2022-08-21T15:04:40;22.90;74.20
41694;DHT22;27377;50.666;9.150;2022-08-21T15:07:06;22.90;74.40
41694;DHT22;27377;50.666;9.150;2022-08-21T15:09:32;22.90;74.60
41694;DHT22;27377;50.666;9.150;2022-08-21T15:12:00;22.90;75.10
41694;DHT22;27377;50.666;9.150;2022-08-21T15:14:29;22.90;75.20
41694;DHT22;27377;50.666;9.150;2022-08-21T15:16:55;22.90;75.10
41694;DHT22;27377;50.666;9.150;2022-08-21T15:19:21;22.90;75.50
41694;DHT22;27377;50.666;9.150;2022-08-21T15:21:46;22.90;75.10
41694;DHT22;27377;50.666;9.150;2022-08-21T15:24:12;22.90;75.10
41694;DHT22;27377;50.666;9.150;2022-08-21T15:26:37;22.90;74.70
41694;DHT22;27377;50.666;9.150;2022-08-21T15:29:04;22.90;74.30
41694;DHT22;27377;50.666;9.150;2022-08-21T15:31:30;23.00;74.00
41694;DHT22;27377;50.666;9.150;2022-08-21T15:33:56;23.00;74.30
41694;DHT22;27377;50.666;9.150;2022-08-21T15:36:22;23.00;74.40
41694;DHT22;27377;50.666;9.150;2022-08-21T15:38:47;23.00;74.00
41694;DHT22;27377;50.666;9.150;2022-08-21T15:41:13;23.10;73.20
41694;DHT22;27377;50.666;9.150;2022-08-21T15:43:45;23.10;73.30
41694;DHT22;27377;50.666;9.150;2022-08-21T15:46:13;23.10;73.30
41694;DHT22;27377;50.666;9.150;2022-08-21T15:48:40;23.10;72.80
41694;DHT22;27377;50.666;9.150;2022-08-21T15:51:05;23.10;71.30
41694;DHT22;27377;50.666;9.150;2022-08-21T15:53:31;23.10;71.90
41694;DHT22;27377;50.666;9.150;2022-08-21T15:56:05;23.20;72.30
41694;DHT22;27377;50.666;9.150;2022-08-21T15:58:31;23.20;72.60
41694;DHT22;27377;50.666;9.150;2022-08-21T16:00:59;23.20;71.00
41694;DHT22;27377;50.666;9.150;2022-08-21T16:03:25;23.30;68.90
41694;DHT22;27377;50.666;9.150;2022-08-21T16:05:51;23.40;70.00
41694;DHT22;27377;50.666;9.150;2022-08-21T16:08:19;23.40;70.50
41694;DHT22;27377;50.666;9.150;2022-08-21T16:10:45;23.40;70.70
41694;DHT22;27377;50.666;9.150;2022-08-21T16:13:26;23.40;71.10
41694;DHT22;27377;50.666;9.150;2022-08-21T16:15:53;23.40;70.80
41694;DHT22;27377;50.666;9.150;2022-08-21T16:18:19;23.50;67.30
41694;DHT22;27377;50.666;9.150;2022-08-21T16:20:45;23.50;67.90
41694;DHT22;27377;50.666;9.150;2022-08-21T16:23:10;23.50;68.70
41694;DHT22;27377;50.666;9.150;2022-08-21T16:25:37;23.50;68.40
41694;DHT22;27377;50.666;9.150;2022-08-21T16:28:06;23.60;68.60
41694;DHT22;27377;50.666;9.150;2022-08-21T16:30:32;23.50;68.50
41694;DHT22;27377;50.666;9.150;2022-08-21T16:33:00;23.50;69.70
41694;DHT22;27377;50.666;9.150;2022-08-21T16:35:26;23.50;68.30
41694;DHT22;27377;50.666;9.150;2022-08-21T16:37:52;23.40;69.50
41694;DHT22;27377;50.666;9.150;2022-08-21T16:40:17;23.30;70.60
41694;DHT22;27377;50.666;9.150;2022-08-21T16:42:43;23.30;70.90
41694;DHT22;27377;50.666;9.150;2022-08-21T16:45:16;23.20;71.40
41694;DHT22;27377;50.666;9.150;2022-08-21T16:47:42;23.20;71.90
41694;DHT22;27377;50.666;9.150;2022-08-21T16:50:10;23.20;72.70
41694;DHT22;27377;50.666;9.150;2022-08-21T16:52:36;23.20;73.60
41694;DHT22;27377;50.666;9.150;2022-08-21T16:55:02;23.10;73.90
41694;DHT22;27377;50.666;9.150;2022-08-21T16:57:29;23.10;74.60
41694;DHT22;27377;50.666;9.150;2022-08-21T16:59:55;23.10;75.20